createdAt,value
2019-05-10T00:00:55.724Z,12.40
2019-05-10T00:03:42.006Z,12.39
2019-05-10T00:06:28.340Z,12.34
2019-05-10T00:08:55.819Z,12.35
2019-05-10T00:11:28.436Z,12.34
2019-05-10T00:14:13.264Z,12.32
2019-05-10T00:16:41.545Z,12.28
2019-05-10T00:19:09.845Z,12.28
2019-05-10T00:21:38.139Z,12.30
2019-05-10T00:24:06.369Z,12.27
2019-05-10T00:26:34.603Z,12.26
2019-05-10T00:29:02.913Z,12.21
2019-05-10T00:31:31.162Z,12.20
2019-05-10T00:33:59.431Z,12.16
2019-05-10T00:36:27.659Z,12.08
2019-05-10T00:38:55.943Z,12.04
2019-05-10T00:41:24.180Z,12.05
2019-05-10T00:43:52.451Z,12.04
2019-05-10T00:46:20.697Z,11.99
2019-05-10T00:48:48.963Z,11.94
2019-05-10T00:51:17.201Z,11.88
2019-05-10T00:53:45.475Z,11.91
2019-05-10T00:56:13.712Z,11.94
2019-05-10T00:58:41.960Z,11.96
2019-05-10T01:01:10.703Z,11.93
2019-05-10T01:03:38.947Z,11.93
2019-05-10T01:06:07.248Z,11.95
2019-05-10T01:08:35.470Z,11.97
2019-05-10T01:11:03.739Z,11.97
2019-05-10T01:13:31.972Z,11.96
2019-05-10T01:16:00.242Z,11.93
2019-05-10T01:18:28.474Z,11.93
2019-05-10T01:20:56.766Z,11.90
2019-05-10T01:23:24.989Z,11.85
2019-05-10T01:25:53.490Z,11.83
2019-05-10T01:28:21.770Z,11.85
2019-05-10T01:30:50.068Z,11.80
2019-05-10T01:33:18.348Z,11.82
2019-05-10T01:35:46.591Z,11.72
2019-05-10T01:38:14.866Z,11.70
2019-05-10T01:40:43.094Z,11.69
2019-05-10T01:43:11.563Z,11.65
2019-05-10T01:45:39.794Z,11.65
2019-05-10T01:48:08.073Z,11.59
2019-05-10T01:50:36.304Z,11.61
2019-05-10T01:53:04.567Z,11.59
2019-05-10T01:55:32.805Z,11.58
2019-05-10T01:58:01.189Z,11.56
2019-05-10T02:00:29.459Z,11.55
2019-05-10T02:02:57.701Z,11.51
2019-05-10T02:05:25.983Z,11.51
2019-05-10T02:07:54.209Z,11.52
2019-05-10T02:10:22.484Z,11.55
2019-05-10T02:12:50.722Z,11.55
2019-05-10T02:15:18.995Z,11.52
2019-05-10T02:17:47.315Z,11.53
2019-05-10T02:20:15.588Z,11.50
2019-05-10T02:22:43.833Z,11.51
2019-05-10T02:25:12.116Z,11.48
2019-05-10T02:27:40.358Z,11.50
2019-05-10T02:30:09.019Z,11.47
2019-05-10T02:32:37.296Z,11.50
2019-05-10T02:35:06.984Z,11.47
2019-05-10T02:37:35.273Z,11.45
2019-05-10T02:40:04.589Z,11.47
2019-05-10T02:42:32.878Z,11.47
2019-05-10T02:45:01.131Z,11.43
2019-05-10T02:47:29.420Z,11.41
2019-05-10T02:49:59.133Z,11.42
2019-05-10T02:52:27.675Z,11.43
2019-05-10T02:54:55.914Z,11.46
2019-05-10T02:57:24.210Z,11.45
2019-05-10T02:59:52.454Z,11.45
2019-05-10T03:02:20.692Z,11.40
2019-05-10T03:04:48.990Z,11.43
2019-05-10T03:07:18.177Z,11.41
2019-05-10T03:09:48.472Z,11.42
2019-05-10T03:12:26.433Z,11.46
2019-05-10T03:14:56.673Z,11.48
2019-05-10T03:17:25.176Z,11.50
2019-05-10T03:19:55.248Z,11.51
2019-05-10T03:22:25.442Z,11.52
2019-05-10T03:24:53.795Z,11.51
2019-05-10T03:27:22.167Z,11.54
2019-05-10T03:29:50.482Z,11.55
2019-05-10T03:32:18.732Z,11.57
2019-05-10T03:34:47.003Z,11.58
2019-05-10T03:37:15.248Z,11.56
2019-05-10T03:39:43.483Z,11.55
2019-05-10T03:42:11.764Z,11.58
2019-05-10T03:44:40.001Z,11.57
2019-05-10T03:47:08.302Z,11.59
2019-05-10T03:49:36.537Z,11.59
2019-05-10T03:52:04.825Z,11.57
2019-05-10T03:54:33.056Z,11.58
2019-05-10T03:57:12.930Z,11.57
2019-05-10T03:59:31.321Z,11.61
2019-05-10T04:01:59.613Z,11.60
2019-05-10T04:04:27.850Z,11.56
2019-05-10T04:06:56.144Z,11.56
2019-05-10T04:09:24.386Z,11.60
2019-05-10T04:11:52.735Z,11.60
2019-05-10T04:14:21.074Z,11.62
2019-05-10T04:16:49.311Z,11.58
2019-05-10T04:19:17.592Z,11.57
2019-05-10T04:21:45.845Z,11.57
2019-05-10T04:24:14.113Z,11.56
2019-05-10T04:26:42.577Z,11.55
2019-05-10T04:29:10.824Z,11.54
2019-05-10T04:31:39.069Z,11.57
2019-05-10T04:34:07.497Z,11.58
2019-05-10T04:36:35.798Z,11.59
2019-05-10T04:39:05.882Z,11.57
2019-05-10T04:41:34.129Z,11.59
2019-05-10T04:44:02.360Z,11.61
2019-05-10T04:46:30.669Z,11.58
2019-05-10T04:48:58.898Z,11.58
2019-05-10T04:51:27.297Z,11.55
2019-05-10T04:53:55.524Z,11.58
2019-05-10T04:56:23.814Z,11.55
2019-05-10T04:58:52.054Z,11.60
2019-05-10T05:01:20.325Z,11.60
2019-05-10T05:03:48.564Z,11.60
2019-05-10T05:06:16.844Z,11.62
2019-05-10T05:08:45.083Z,11.62
2019-05-10T05:11:13.389Z,11.63
2019-05-10T05:13:41.657Z,11.63
2019-05-10T05:16:09.865Z,11.68
2019-05-10T05:18:38.141Z,11.68
2019-05-10T05:21:06.383Z,11.67
2019-05-10T05:23:34.691Z,11.67
2019-05-10T05:26:02.919Z,11.69
2019-05-10T05:28:31.204Z,11.73
2019-05-10T05:30:59.491Z,11.78
2019-05-10T05:33:27.724Z,11.80
2019-05-10T05:35:55.963Z,11.77
2019-05-10T05:38:24.255Z,11.82
2019-05-10T05:40:52.494Z,12.02
2019-05-10T05:43:20.734Z,12.27
2019-05-10T05:45:49.008Z,12.48
2019-05-10T05:48:21.276Z,12.50
2019-05-10T05:50:47.263Z,12.52
2019-05-10T05:53:15.498Z,12.60
2019-05-10T05:55:43.782Z,12.62
2019-05-10T05:58:25.572Z,12.72
2019-05-10T06:00:44.667Z,12.69
2019-05-10T06:03:19.309Z,12.53
2019-05-10T06:05:41.982Z,12.26
2019-05-10T06:08:23.073Z,12.07
2019-05-10T06:10:43.761Z,12.00
2019-05-10T06:13:10.268Z,11.98
2019-05-10T06:15:38.575Z,11.90
2019-05-10T06:18:09.652Z,11.75
2019-05-10T06:20:38.160Z,11.75
2019-05-10T06:23:07.369Z,11.87
2019-05-10T06:25:42.191Z,11.90
2019-05-10T06:28:24.060Z,11.97
2019-05-10T06:30:35.907Z,12.00
2019-05-10T06:33:12.689Z,12.11
2019-05-10T06:35:34.132Z,12.13
2019-05-10T06:38:02.431Z,12.08
2019-05-10T06:40:34.760Z,12.11
2019-05-10T06:43:00.632Z,12.21
2019-05-10T06:45:28.915Z,12.17
2019-05-10T06:47:57.150Z,12.06
2019-05-10T06:50:30.394Z,12.07
2019-05-10T06:53:00.655Z,12.12
2019-05-10T06:55:25.506Z,12.23
2019-05-10T06:57:59.571Z,12.36
2019-05-10T07:00:24.319Z,12.36
2019-05-10T07:02:52.550Z,12.39
2019-05-10T07:05:20.824Z,12.45
2019-05-10T07:07:49.057Z,12.46
2019-05-10T07:10:19.401Z,12.48
2019-05-10T07:12:47.351Z,12.62
2019-05-10T07:15:15.656Z,12.69
2019-05-10T07:17:47.113Z,12.72
2019-05-10T07:20:13.866Z,12.79
2019-05-10T07:22:42.126Z,12.84
2019-05-10T07:25:11.100Z,12.78
2019-05-10T07:27:39.382Z,12.76
2019-05-10T07:30:07.610Z,12.82
2019-05-10T07:32:35.893Z,12.87
2019-05-10T07:35:06.158Z,12.93
2019-05-10T07:37:34.978Z,13.08
2019-05-10T07:40:04.381Z,13.15
2019-05-10T07:42:32.649Z,13.31
2019-05-10T07:45:00.882Z,13.38
2019-05-10T07:47:30.379Z,13.47
2019-05-10T07:50:03.857Z,13.56
2019-05-10T07:52:29.103Z,13.81
2019-05-10T07:54:57.465Z,13.92
2019-05-10T07:57:27.036Z,14.07
2019-05-10T07:59:57.711Z,14.17
2019-05-10T08:02:25.635Z,14.47
2019-05-10T08:04:53.909Z,14.64
2019-05-10T08:07:22.143Z,14.89
2019-05-10T08:09:50.411Z,15.18
2019-05-10T08:12:19.507Z,15.06
2019-05-10T08:14:50.159Z,14.77
2019-05-10T08:17:19.239Z,14.21
2019-05-10T08:19:47.792Z,13.89
2019-05-10T08:22:16.026Z,13.64
2019-05-10T08:24:52.079Z,13.57
2019-05-10T08:27:14.998Z,13.50
2019-05-10T08:29:43.382Z,13.44
2019-05-10T08:32:12.807Z,13.50
2019-05-10T08:34:51.712Z,13.50
2019-05-10T08:37:12.837Z,13.64
2019-05-10T08:39:45.599Z,13.79
2019-05-10T08:42:30.550Z,13.61
2019-05-10T08:44:42.762Z,13.66
2019-05-10T08:47:15.682Z,13.67
2019-05-10T08:49:55.316Z,13.70
2019-05-10T08:52:12.191Z,13.53
2019-05-10T08:54:42.328Z,13.61
2019-05-10T08:57:17.924Z,13.54
2019-05-10T08:59:42.768Z,13.51
2019-05-10T09:02:12.587Z,13.56
2019-05-10T09:04:47.154Z,13.66
2019-05-10T09:07:11.909Z,13.66
2019-05-10T09:09:45.565Z,13.63
2019-05-10T09:12:12.355Z,14.24
2019-05-10T09:14:42.588Z,14.24
2019-05-10T09:17:14.879Z,13.98
2019-05-10T09:19:42.752Z,13.67
2019-05-10T09:22:12.364Z,13.35
2019-05-10T09:24:48.341Z,13.18
2019-05-10T09:27:12.793Z,13.09
2019-05-10T09:29:40.593Z,12.92
2019-05-10T09:32:08.909Z,12.75
2019-05-10T09:34:37.318Z,12.67
2019-05-10T09:37:08.058Z,12.64
2019-05-10T09:39:35.608Z,12.51
2019-05-10T09:42:07.989Z,12.65
2019-05-10T09:44:34.042Z,12.66
2019-05-10T09:47:04.056Z,12.85
2019-05-10T09:49:33.200Z,12.84
2019-05-10T09:52:04.583Z,12.79
2019-05-10T09:54:33.460Z,12.66
2019-05-10T09:57:01.754Z,12.72
2019-05-10T09:59:30.036Z,12.77
2019-05-10T10:01:58.264Z,12.72
2019-05-10T10:04:28.151Z,12.59
2019-05-10T10:06:58.002Z,12.87
2019-05-10T10:09:34.815Z,13.07
2019-05-10T10:11:59.124Z,13.09
2019-05-10T10:14:28.300Z,13.29
2019-05-10T10:17:00.506Z,13.33
2019-05-10T10:19:27.868Z,13.49
2019-05-10T10:21:57.617Z,13.67
2019-05-10T10:24:28.474Z,13.56
2019-05-10T10:26:58.137Z,13.68
2019-05-10T10:29:28.716Z,13.74
2019-05-10T10:31:58.995Z,13.93
2019-05-10T10:34:27.199Z,14.08
2019-05-10T10:36:58.048Z,13.99
2019-05-10T10:39:27.781Z,14.04
2019-05-10T10:41:57.166Z,14.02
2019-05-10T10:44:27.046Z,13.92
2019-05-10T10:46:58.064Z,13.92
2019-05-10T10:49:27.960Z,13.83
2019-05-10T10:51:57.337Z,13.66
2019-05-10T10:54:28.605Z,13.55
2019-05-10T10:56:59.284Z,13.51
2019-05-10T10:59:25.993Z,13.35
2019-05-10T11:02:25.236Z,13.19
2019-05-10T11:04:24.277Z,13.22
2019-05-10T11:07:08.874Z,13.28
2019-05-10T11:09:22.649Z,13.29
2019-05-10T11:11:51.545Z,13.23
2019-05-10T11:14:20.686Z,13.24
2019-05-10T11:16:52.837Z,13.22
2019-05-10T11:19:20.499Z,13.62
2019-05-10T11:21:51.264Z,14.52
2019-05-10T11:24:22.422Z,14.88
2019-05-10T11:26:51.674Z,15.30
2019-05-10T11:29:27.703Z,15.56
2019-05-10T11:32:10.388Z,15.46
2019-05-10T11:34:21.486Z,15.71
2019-05-10T11:36:51.161Z,15.47
2019-05-10T11:39:25.911Z,15.48
2019-05-10T11:41:53.109Z,15.83
2019-05-10T11:44:22.057Z,16.06
2019-05-10T11:46:50.792Z,15.78
2019-05-10T11:49:20.443Z,15.73
2019-05-10T11:51:54.817Z,15.37
2019-05-10T11:54:21.374Z,15.35
2019-05-10T11:56:51.938Z,15.63
2019-05-10T11:59:21.862Z,15.40
2019-05-10T12:01:56.855Z,15.16
2019-05-10T12:04:23.867Z,14.88
2019-05-10T12:06:50.240Z,14.95
2019-05-10T12:09:21.314Z,15.23
2019-05-10T12:11:56.475Z,15.00
2019-05-10T12:14:21.893Z,14.77
2019-05-10T12:16:54.231Z,14.46
2019-05-10T12:19:21.271Z,14.15
2019-05-10T12:21:55.506Z,14.00
2019-05-10T12:24:33.998Z,13.77
2019-05-10T12:29:21.310Z,13.50
2019-05-10T12:31:53.396Z,13.56
2019-05-10T12:34:20.721Z,13.62
2019-05-10T12:36:51.757Z,13.56
2019-05-10T12:39:21.448Z,13.51
2019-05-10T12:41:52.246Z,13.49
2019-05-10T12:44:19.234Z,13.55
2019-05-10T12:46:47.485Z,14.08
2019-05-10T12:49:15.719Z,14.97
2019-05-10T12:51:44.017Z,15.44
2019-05-10T12:54:12.249Z,15.11
2019-05-10T12:56:43.777Z,15.06
2019-05-10T12:59:10.489Z,15.09
2019-05-10T13:01:38.764Z,14.70
2019-05-10T13:04:15.152Z,14.72
2019-05-10T13:06:37.102Z,14.94
2019-05-10T13:09:07.469Z,15.42
2019-05-10T13:11:35.746Z,15.74
2019-05-10T13:14:07.407Z,16.17
2019-05-10T13:16:34.037Z,16.28
2019-05-10T13:19:02.338Z,16.44
2019-05-10T13:21:30.676Z,15.75
2019-05-10T13:23:59.212Z,15.39
2019-05-10T13:26:27.503Z,15.23
2019-05-10T13:28:55.738Z,15.18
2019-05-10T13:31:24.030Z,15.03
2019-05-10T13:33:52.265Z,14.83
2019-05-10T13:36:20.485Z,14.58
2019-05-10T13:38:49.479Z,14.43
2019-05-10T13:41:23.812Z,14.36
2019-05-10T13:43:47.893Z,14.17
2019-05-10T13:46:16.110Z,14.08
2019-05-10T13:48:44.381Z,13.94
2019-05-10T13:51:12.635Z,13.94
2019-05-10T13:53:40.904Z,14.22
2019-05-10T13:56:09.544Z,14.29
2019-05-10T13:58:37.842Z,14.19
2019-05-10T14:01:06.497Z,14.12
2019-05-10T14:03:44.169Z,14.09
2019-05-10T14:06:06.042Z,14.16
2019-05-10T14:08:34.331Z,14.26
2019-05-10T14:11:03.387Z,14.24
2019-05-10T14:13:35.841Z,14.43
2019-05-10T14:16:01.757Z,14.55
2019-05-10T14:18:30.297Z,14.68
2019-05-10T14:20:58.591Z,14.62
2019-05-10T14:23:28.874Z,14.53
2019-05-10T14:25:57.075Z,14.33
2019-05-10T14:28:25.309Z,14.29
2019-05-10T14:30:57.464Z,14.16
2019-05-10T14:33:23.818Z,14.20
2019-05-10T14:35:55.053Z,14.31
2019-05-10T14:38:22.918Z,14.39
2019-05-10T14:40:51.580Z,14.36
2019-05-10T14:43:19.809Z,14.27
2019-05-10T14:45:48.083Z,14.20
2019-05-10T14:48:16.314Z,14.17
2019-05-10T14:50:46.674Z,14.17
2019-05-10T14:53:20.132Z,14.04
2019-05-10T14:55:44.736Z,13.95
2019-05-10T14:58:13.868Z,13.87
2019-05-10T15:00:42.272Z,13.81
2019-05-10T15:03:10.555Z,13.79
2019-05-10T15:05:38.790Z,13.75
2019-05-10T15:08:07.082Z,13.71
2019-05-10T15:10:39.633Z,13.74
2019-05-10T15:13:05.350Z,13.66
2019-05-10T15:15:37.109Z,13.69
2019-05-10T15:18:03.763Z,13.67
2019-05-10T15:20:35.508Z,13.61
2019-05-10T15:23:01.980Z,13.61
2019-05-10T15:25:30.350Z,13.56
2019-05-10T15:28:00.320Z,13.52
2019-05-10T15:30:28.596Z,13.43
2019-05-10T15:32:57.014Z,13.33
2019-05-10T15:35:25.321Z,13.21
2019-05-10T15:37:53.546Z,13.04
2019-05-10T15:40:21.825Z,12.89
2019-05-10T15:42:50.068Z,12.80
2019-05-10T15:45:19.493Z,12.74
2019-05-10T15:47:51.697Z,12.74
2019-05-10T15:50:17.939Z,12.79
2019-05-10T15:52:48.499Z,12.89
2019-05-10T15:55:25.824Z,12.89
2019-05-10T15:57:46.351Z,12.91
2019-05-10T16:00:14.582Z,12.89
2019-05-10T16:02:43.004Z,12.86
2019-05-10T16:05:23.935Z,12.79
2019-05-10T16:07:41.231Z,12.74
2019-05-10T16:10:09.635Z,12.66
2019-05-10T16:12:42.904Z,12.51
2019-05-10T16:15:13.867Z,12.52
2019-05-10T16:17:39.046Z,12.50
2019-05-10T16:20:07.276Z,12.45
2019-05-10T16:22:35.568Z,12.38
2019-05-10T16:25:05.240Z,12.20
2019-05-10T16:27:33.900Z,12.12
2019-05-10T16:30:04.519Z,12.00
2019-05-10T16:32:34.585Z,11.91
2019-05-10T16:35:05.784Z,11.80
2019-05-10T16:37:32.714Z,11.72
2019-05-10T16:40:00.989Z,11.70
2019-05-10T16:42:34.516Z,11.66
2019-05-10T16:44:59.254Z,11.66
2019-05-10T16:47:27.480Z,11.71
2019-05-10T16:49:56.140Z,11.75
2019-05-10T16:52:26.087Z,11.71
2019-05-10T16:54:57.751Z,11.67
2019-05-10T16:57:24.788Z,11.71
2019-05-10T16:59:53.242Z,11.75
2019-05-10T17:02:21.598Z,11.86
2019-05-10T17:04:49.982Z,11.93
2019-05-10T17:07:19.044Z,11.97
2019-05-10T17:09:49.560Z,11.96
2019-05-10T17:12:22.116Z,12.00
2019-05-10T17:14:50.681Z,11.89
2019-05-10T17:17:18.942Z,11.81
2019-05-10T17:25:42.367Z,11.73
2019-05-10T17:28:11.217Z,11.70
2019-05-10T17:30:39.669Z,11.58
2019-05-10T17:33:10.849Z,11.44
2019-05-10T17:35:42.093Z,11.45
2019-05-10T17:38:14.070Z,11.43
2019-05-10T17:40:42.315Z,11.49
2019-05-10T17:43:14.217Z,11.56
2019-05-10T17:45:42.257Z,11.61
2019-05-10T17:48:10.299Z,11.63
2019-05-10T17:50:38.626Z,11.63
2019-05-10T17:53:06.946Z,11.62
2019-05-10T17:55:35.235Z,11.61
2019-05-10T17:58:03.648Z,11.59
2019-05-10T18:00:31.972Z,11.63
2019-05-10T18:03:00.408Z,11.67
2019-05-10T18:05:28.735Z,11.63
2019-05-10T18:07:57.119Z,11.65
2019-05-10T18:10:25.536Z,11.62
2019-05-10T18:12:57.482Z,11.61
2019-05-10T18:15:27.738Z,11.57
2019-05-10T18:17:57.593Z,11.57
2019-05-10T18:20:24.016Z,11.54
2019-05-10T18:22:52.308Z,11.54
2019-05-10T18:25:22.374Z,11.54
2019-05-10T18:27:50.751Z,11.48
2019-05-10T18:30:19.816Z,11.42
2019-05-10T18:32:48.274Z,11.37
2019-05-10T18:35:17.150Z,11.31
2019-05-10T18:37:45.659Z,11.33
2019-05-10T18:40:14.388Z,11.32
2019-05-10T18:42:43.025Z,11.31
2019-05-10T18:45:11.302Z,11.32
2019-05-10T18:47:39.817Z,11.31
2019-05-10T18:50:08.464Z,11.31
2019-05-10T18:52:36.881Z,11.27
2019-05-10T18:55:05.881Z,11.25
2019-05-10T18:57:34.694Z,11.20
2019-05-10T19:00:03.242Z,11.18
2019-05-10T19:02:31.935Z,11.13
2019-05-10T19:05:00.194Z,10.96
2019-05-10T19:07:28.477Z,10.87
2019-05-10T19:09:56.913Z,10.75
2019-05-10T19:12:25.627Z,10.65
2019-05-10T19:14:54.167Z,10.57
2019-05-10T19:17:22.585Z,10.60
2019-05-10T19:19:50.907Z,10.78
2019-05-10T19:22:19.276Z,10.83
2019-05-10T19:24:47.723Z,10.85
2019-05-10T19:27:16.034Z,10.87
2019-05-10T19:29:47.802Z,10.89
2019-05-10T19:32:18.077Z,10.86
2019-05-10T19:34:48.492Z,10.72
2019-05-10T19:37:28.440Z,10.65
2019-05-10T19:39:45.032Z,10.66
2019-05-10T19:42:13.371Z,10.79
2019-05-10T19:44:42.267Z,10.85
2019-05-10T19:47:16.833Z,10.89
2019-05-10T19:49:45.871Z,10.87
2019-05-10T19:52:10.899Z,10.80
2019-05-10T19:54:39.280Z,10.78
2019-05-10T19:57:15.070Z,10.76
2019-05-10T19:59:37.868Z,10.69
2019-05-10T20:02:06.276Z,10.69
2019-05-10T20:04:34.550Z,10.65
2019-05-10T20:07:02.838Z,10.64
2019-05-10T20:09:31.076Z,10.54
2019-05-10T20:11:59.366Z,10.56
2019-05-10T20:14:27.839Z,10.59
2019-05-10T20:16:56.252Z,10.55
2019-05-10T20:19:24.815Z,10.46
2019-05-10T20:21:53.514Z,10.41
2019-05-10T20:24:22.168Z,10.42
2019-05-10T20:26:50.917Z,10.43
2019-05-10T20:29:19.623Z,10.37
2019-05-10T20:31:48.277Z,10.37
2019-05-10T20:34:16.980Z,10.34
2019-05-10T20:36:45.625Z,10.32
2019-05-10T20:39:14.344Z,10.22
2019-05-10T20:41:42.975Z,10.05
2019-05-10T20:44:11.535Z,9.86
2019-05-10T20:46:40.027Z,9.84
2019-05-10T20:49:08.577Z,9.81
2019-05-10T20:51:37.096Z,9.78
2019-05-10T20:54:05.909Z,9.81
2019-05-10T20:56:34.477Z,9.92
2019-05-10T20:59:03.199Z,9.99
2019-05-10T21:01:31.851Z,10.07
2019-05-10T21:04:00.523Z,9.93
2019-05-10T21:06:29.019Z,9.91
2019-05-10T21:08:57.594Z,9.97
2019-05-10T21:11:26.094Z,10.03
2019-05-10T21:13:57.825Z,10.01
2019-05-10T21:16:24.928Z,9.98
2019-05-10T21:18:53.561Z,9.99
2019-05-10T21:21:22.039Z,9.94
2019-05-10T21:23:50.628Z,9.90
2019-05-10T21:26:19.359Z,9.84
2019-05-10T21:28:48.005Z,9.73
2019-05-10T21:31:16.507Z,9.66
2019-05-10T21:33:45.063Z,9.67
2019-05-10T21:36:13.754Z,9.62
2019-05-10T21:38:42.508Z,9.62
2019-05-10T21:41:11.146Z,9.66
2019-05-10T21:43:39.863Z,9.67
2019-05-10T21:46:08.490Z,9.62
2019-05-10T21:48:37.450Z,9.55
2019-05-10T21:51:05.894Z,9.53
2019-05-10T21:53:34.661Z,9.55
2019-05-10T21:56:03.234Z,9.58
2019-05-10T21:58:31.988Z,9.56
2019-05-10T22:01:00.672Z,9.53
2019-05-10T22:03:29.334Z,9.51
2019-05-10T22:05:58.056Z,9.56
2019-05-10T22:08:26.670Z,9.51
2019-05-10T22:10:55.174Z,9.49
2019-05-10T22:13:23.807Z,9.50
2019-05-10T22:15:52.473Z,9.41
2019-05-10T22:18:21.183Z,9.38
2019-05-10T22:20:50.082Z,9.46
2019-05-10T22:23:18.718Z,9.43
2019-05-10T22:25:47.205Z,9.45
2019-05-10T22:28:15.845Z,9.43
2019-05-10T22:30:45.077Z,9.37
2019-05-10T22:33:13.835Z,9.35
2019-05-10T22:35:42.782Z,9.34
2019-05-10T22:38:11.238Z,9.30
2019-05-10T22:40:39.945Z,9.25
2019-05-10T22:43:08.573Z,9.20
2019-05-10T22:45:37.467Z,9.22
2019-05-10T22:48:06.015Z,9.26
2019-05-10T22:50:35.059Z,9.28
2019-05-10T22:53:03.736Z,9.30
2019-05-10T22:55:32.298Z,9.30
2019-05-10T22:58:00.781Z,9.33
2019-05-10T23:00:29.517Z,9.34
2019-05-10T23:02:58.269Z,9.37
2019-05-10T23:05:26.743Z,9.36
2019-05-10T23:07:55.220Z,9.29
2019-05-10T23:10:23.807Z,9.17
2019-05-10T23:12:52.289Z,9.25
2019-05-10T23:15:20.946Z,9.36
2019-05-10T23:17:49.620Z,9.43
2019-05-10T23:20:18.243Z,9.45
2019-05-10T23:22:46.766Z,9.56
2019-05-10T23:25:15.314Z,9.40
2019-05-10T23:27:43.923Z,9.30
2019-05-10T23:30:12.474Z,9.23
2019-05-10T23:32:41.242Z,9.18
2019-05-10T23:35:11.374Z,9.25
2019-05-10T23:37:39.994Z,9.15
2019-05-10T23:40:09.032Z,9.11
2019-05-10T23:42:37.639Z,9.20
2019-05-10T23:45:07.826Z,9.18
2019-05-10T23:47:36.267Z,9.22
2019-05-10T23:50:05.828Z,9.14
2019-05-10T23:52:34.278Z,9.00
2019-05-10T23:55:02.957Z,8.96
2019-05-10T23:57:31.608Z,8.89
